createdAt,value
2019-02-19T00:04:17.787Z,73.20
2019-02-19T00:07:04.624Z,72.90
2019-02-19T00:09:51.404Z,72.70
2019-02-19T00:12:38.218Z,72.40
2019-02-19T00:15:25.058Z,72.30
2019-02-19T00:18:11.890Z,72.10
2019-02-19T00:20:58.744Z,72.00
2019-02-19T00:23:45.568Z,71.90
2019-02-19T00:26:32.406Z,72.70
2019-02-19T00:29:19.245Z,72.10
2019-02-19T00:32:06.094Z,72.10
2019-02-19T00:34:53.030Z,72.20
2019-02-19T00:37:39.879Z,72.30
2019-02-19T00:40:26.746Z,72.50
2019-02-19T00:43:13.691Z,72.50
2019-02-19T00:46:00.533Z,72.50
2019-02-19T00:48:47.381Z,72.40
2019-02-19T00:51:34.226Z,72.50
2019-02-19T00:54:14.130Z,72.50
2019-02-19T00:56:54.331Z,72.40
2019-02-19T00:59:34.559Z,72.40
2019-02-19T01:02:14.729Z,72.30
2019-02-19T01:04:55.052Z,72.10
2019-02-19T01:07:35.246Z,72.10
2019-02-19T01:10:15.253Z,72.00
2019-02-19T01:12:55.406Z,72.00
2019-02-19T01:15:35.513Z,72.00
2019-02-19T01:18:15.546Z,72.00
2019-02-19T01:20:55.693Z,71.80
2019-02-19T01:23:35.846Z,71.70
2019-02-19T01:26:15.746Z,71.50
2019-02-19T01:28:56.001Z,71.40
2019-02-19T01:31:35.991Z,71.30
2019-02-19T01:34:16.294Z,71.30
2019-02-19T01:36:56.585Z,71.40
2019-02-19T01:39:36.632Z,71.40
2019-02-19T01:42:16.817Z,71.40
2019-02-19T01:44:56.663Z,71.40
2019-02-19T01:47:36.577Z,71.30
2019-02-19T01:50:16.462Z,71.60
2019-02-19T01:52:56.673Z,71.90
2019-02-19T01:55:36.653Z,72.30
2019-02-19T01:58:16.987Z,72.50
2019-02-19T02:00:57.077Z,72.50
2019-02-19T02:03:37.333Z,72.50
2019-02-19T02:06:17.046Z,72.30
2019-02-19T02:08:57.045Z,72.50
2019-02-19T02:11:37.199Z,72.40
2019-02-19T02:14:17.481Z,72.40
2019-02-19T02:16:57.366Z,72.50
2019-02-19T02:19:37.613Z,72.80
2019-02-19T02:22:17.373Z,73.10
2019-02-19T02:24:57.508Z,73.60
2019-02-19T02:27:37.605Z,73.90
2019-02-19T02:30:17.589Z,74.30
2019-02-19T02:32:57.566Z,74.60
2019-02-19T02:35:37.010Z,75.00
2019-02-19T02:38:17.103Z,75.10
2019-02-19T02:40:56.987Z,75.20
2019-02-19T02:43:37.007Z,75.20
2019-02-19T02:46:17.154Z,75.20
2019-02-19T02:48:57.306Z,75.20
2019-02-19T02:51:37.250Z,75.20
2019-02-19T02:54:17.220Z,75.30
2019-02-19T02:56:57.220Z,75.50
2019-02-19T02:59:37.073Z,75.70
2019-02-19T03:02:17.386Z,75.90
2019-02-19T03:04:57.653Z,76.10
2019-02-19T03:07:40.719Z,76.20
2019-02-19T03:10:20.869Z,76.50
2019-02-19T03:13:00.956Z,76.70
2019-02-19T03:15:40.861Z,76.90
2019-02-19T03:18:20.909Z,77.30
2019-02-19T03:21:00.851Z,77.70
2019-02-19T03:23:41.021Z,78.00
2019-02-19T03:26:20.889Z,78.30
2019-02-19T03:29:01.009Z,78.70
2019-02-19T03:31:40.921Z,79.80
2019-02-19T03:34:20.951Z,79.70
2019-02-19T03:37:00.842Z,79.80
2019-02-19T03:39:40.723Z,80.00
2019-02-19T03:42:20.746Z,80.00
2019-02-19T03:45:00.683Z,80.20
2019-02-19T03:47:40.727Z,80.30
2019-02-19T03:50:20.906Z,80.30
2019-02-19T03:53:01.034Z,80.40
2019-02-19T03:55:40.919Z,80.80
2019-02-19T03:58:20.909Z,81.00
2019-02-19T04:01:01.012Z,81.00
2019-02-19T04:03:41.129Z,81.10
2019-02-19T04:06:21.422Z,81.50
2019-02-19T04:09:01.346Z,81.80
2019-02-19T04:11:41.429Z,81.80
2019-02-19T04:14:21.469Z,81.90
2019-02-19T04:17:01.733Z,81.90
2019-02-19T04:19:41.817Z,82.20
2019-02-19T04:22:22.116Z,82.40
2019-02-19T04:25:02.294Z,82.50
2019-02-19T04:27:42.519Z,82.70
2019-02-19T04:30:22.576Z,83.10
2019-02-19T04:33:02.526Z,83.50
2019-02-19T04:35:42.423Z,84.00
2019-02-19T04:38:22.594Z,84.50
2019-02-19T04:41:02.749Z,84.90
2019-02-19T04:43:42.917Z,85.40
2019-02-19T04:46:31.125Z,85.80
2019-02-19T04:48:51.881Z,86.50
2019-02-19T04:51:19.206Z,87.10
2019-02-19T04:53:46.437Z,87.80
2019-02-19T04:56:13.661Z,88.50
2019-02-19T04:58:41.005Z,89.20
2019-02-19T05:01:08.339Z,90.20
2019-02-19T05:03:35.725Z,90.80
2019-02-19T05:06:03.142Z,91.20
2019-02-19T05:08:30.560Z,91.40
2019-02-19T05:10:57.773Z,91.60
2019-02-19T05:13:25.141Z,92.10
2019-02-19T05:15:52.358Z,92.60
2019-02-19T05:18:19.706Z,92.90
2019-02-19T05:20:46.935Z,93.10
2019-02-19T05:23:14.181Z,93.40
2019-02-19T05:25:41.533Z,93.50
2019-02-19T05:28:08.861Z,93.50
2019-02-19T05:30:36.201Z,93.50
2019-02-19T05:33:03.525Z,93.50
2019-02-19T05:35:30.868Z,93.40
2019-02-19T05:37:58.242Z,93.40
2019-02-19T05:40:25.593Z,93.40
2019-02-19T05:42:52.907Z,93.40
2019-02-19T05:45:20.265Z,93.30
2019-02-19T05:47:47.590Z,93.30
2019-02-19T05:50:14.910Z,93.30
2019-02-19T05:52:42.289Z,93.30
2019-02-19T05:55:09.710Z,93.30
2019-02-19T05:57:37.097Z,93.30
2019-02-19T06:00:04.532Z,93.30
2019-02-19T06:02:32.896Z,93.40
2019-02-19T06:05:00.302Z,93.50
2019-02-19T06:07:27.683Z,93.50
2019-02-19T06:09:55.009Z,93.50
2019-02-19T06:12:22.353Z,93.70
2019-02-19T06:14:49.687Z,93.80
2019-02-19T06:17:17.041Z,94.00
2019-02-19T06:19:44.382Z,94.00
2019-02-19T06:22:11.708Z,94.10
2019-02-19T06:24:58.572Z,94.10
2019-02-19T06:27:45.411Z,94.10
2019-02-19T06:30:32.245Z,94.00
2019-02-19T06:33:19.064Z,93.90
2019-02-19T06:36:05.927Z,93.80
2019-02-19T06:38:45.628Z,93.80
2019-02-19T06:41:25.791Z,93.70
2019-02-19T06:44:05.942Z,93.80
2019-02-19T06:46:46.141Z,93.70
2019-02-19T06:49:26.318Z,93.70
2019-02-19T06:52:06.607Z,93.70
2019-02-19T06:54:46.494Z,93.60
2019-02-19T06:57:26.509Z,93.70
2019-02-19T07:00:06.833Z,93.60
2019-02-19T07:03:06.518Z,93.60
2019-02-19T07:05:46.169Z,93.50
2019-02-19T07:08:26.187Z,93.50
2019-02-19T07:11:06.417Z,93.50
2019-02-19T07:13:46.197Z,93.50
2019-02-19T07:16:26.306Z,93.50
2019-02-19T07:19:06.459Z,93.50
2019-02-19T07:21:46.735Z,93.40
2019-02-19T07:24:26.812Z,93.40
2019-02-19T07:27:06.995Z,93.30
2019-02-19T07:29:47.001Z,93.30
2019-02-19T07:32:26.925Z,93.20
2019-02-19T07:35:06.987Z,93.20
2019-02-19T07:37:34.416Z,93.10
2019-02-19T07:40:01.927Z,93.10
2019-02-19T07:42:29.306Z,93.10
2019-02-19T07:44:56.783Z,93.10
2019-02-19T07:47:24.833Z,93.00
2019-02-19T07:50:11.899Z,93.00
2019-02-19T07:52:39.245Z,92.90
2019-02-19T07:55:26.073Z,92.80
2019-02-19T07:58:13.053Z,92.70
2019-02-19T08:00:59.965Z,92.60
2019-02-19T08:03:46.805Z,92.50
2019-02-19T08:06:33.653Z,92.50
2019-02-19T08:09:01.013Z,92.40
2019-02-19T08:11:28.379Z,92.40
2019-02-19T08:14:15.105Z,92.30
2019-02-19T08:17:01.950Z,92.20
2019-02-19T08:19:48.897Z,92.00
2019-02-19T08:22:35.814Z,91.90
2019-02-19T08:25:22.675Z,91.70
2019-02-19T08:28:09.745Z,91.50
2019-02-19T08:30:56.586Z,91.30
2019-02-19T08:33:43.415Z,91.20
2019-02-19T08:36:30.183Z,91.20
2019-02-19T08:39:10.106Z,91.10
2019-02-19T08:41:50.437Z,91.00
2019-02-19T08:44:30.468Z,90.90
2019-02-19T08:47:10.533Z,90.80
2019-02-19T08:49:50.546Z,90.70
2019-02-19T08:52:30.532Z,90.60
2019-02-19T08:55:10.564Z,90.40
2019-02-19T08:57:50.507Z,90.20
2019-02-19T09:00:30.630Z,90.10
2019-02-19T09:03:10.932Z,90.00
2019-02-19T09:05:51.041Z,89.70
2019-02-19T09:08:31.134Z,89.40
2019-02-19T09:11:10.975Z,89.00
2019-02-19T09:13:50.946Z,88.80
2019-02-19T09:16:30.759Z,88.20
2019-02-19T09:19:10.942Z,87.90
2019-02-19T09:21:50.992Z,87.60
2019-02-19T09:24:31.146Z,86.80
2019-02-19T09:27:11.450Z,85.50
2019-02-19T09:29:51.562Z,83.50
2019-02-19T09:32:31.550Z,80.70
2019-02-19T09:35:11.666Z,77.90
2019-02-19T09:37:51.682Z,76.40
2019-02-19T09:40:33.440Z,75.00
2019-02-19T09:43:13.750Z,72.90
2019-02-19T09:45:53.971Z,68.80
2019-02-19T09:48:33.984Z,62.00
2019-02-19T09:51:14.165Z,57.00
2019-02-19T09:53:54.140Z,52.50
2019-02-19T09:56:34.232Z,48.90
2019-02-19T09:59:14.426Z,45.00
2019-02-19T10:01:54.422Z,41.60
2019-02-19T10:04:34.386Z,38.90
2019-02-19T10:07:14.428Z,37.30
2019-02-19T10:09:54.306Z,34.30
2019-02-19T10:12:34.203Z,32.00
2019-02-19T10:15:14.143Z,29.70
2019-02-19T10:17:54.142Z,28.90
2019-02-19T10:20:34.137Z,28.60
2019-02-19T10:23:14.129Z,27.50
2019-02-19T10:25:54.320Z,27.10
2019-02-19T10:28:34.189Z,25.90
2019-02-19T10:31:14.369Z,24.60
2019-02-19T10:33:54.264Z,23.50
2019-02-19T10:36:34.271Z,22.50
2019-02-19T10:39:14.247Z,22.90
2019-02-19T10:41:54.333Z,23.00
2019-02-19T10:44:34.283Z,23.30
2019-02-19T10:47:14.513Z,23.60
2019-02-19T10:49:54.475Z,23.50
2019-02-19T10:52:34.484Z,23.60
2019-02-19T10:55:14.631Z,24.40
2019-02-19T10:57:54.624Z,24.30
2019-02-19T11:00:34.777Z,24.60
2019-02-19T11:03:14.871Z,25.40
2019-02-19T11:05:56.976Z,25.20
2019-02-19T11:08:37.196Z,25.40
2019-02-19T11:11:17.330Z,25.30
2019-02-19T11:13:57.368Z,25.80
2019-02-19T11:16:37.457Z,26.00
2019-02-19T11:19:17.325Z,26.40
2019-02-19T11:21:57.207Z,26.40
2019-02-19T11:24:37.515Z,26.10
2019-02-19T11:27:17.696Z,25.90
2019-02-19T11:29:57.801Z,25.80
2019-02-19T11:32:38.029Z,26.10
2019-02-19T11:35:18.249Z,26.30
2019-02-19T11:37:58.473Z,26.50
2019-02-19T11:40:38.480Z,26.80
2019-02-19T11:43:18.760Z,26.90
2019-02-19T11:45:58.437Z,27.10
2019-02-19T11:48:38.445Z,26.70
2019-02-19T11:51:18.456Z,26.30
2019-02-19T11:53:58.377Z,26.60
2019-02-19T11:56:38.509Z,26.80
2019-02-19T11:59:18.465Z,26.80
2019-02-19T12:01:59.508Z,26.80
2019-02-19T12:04:39.663Z,27.10
2019-02-19T12:07:19.482Z,27.00
2019-02-19T12:09:59.846Z,26.60
2019-02-19T12:12:39.840Z,27.40
2019-02-19T12:15:19.818Z,28.30
2019-02-19T12:17:59.853Z,29.70
2019-02-19T12:20:40.012Z,31.00
2019-02-19T12:23:19.925Z,32.60
2019-02-19T12:26:00.308Z,34.20
2019-02-19T12:28:40.729Z,36.10
2019-02-19T12:31:21.043Z,37.40
2019-02-19T12:34:01.077Z,39.30
2019-02-19T12:36:28.429Z,40.60
2019-02-19T12:39:15.301Z,41.50
2019-02-19T12:42:02.180Z,42.40
2019-02-19T12:44:49.006Z,43.20
2019-02-19T12:47:35.855Z,44.20
2019-02-19T12:50:22.707Z,45.00
2019-02-19T12:53:09.578Z,45.50
2019-02-19T12:55:56.556Z,46.10
2019-02-19T13:01:50.000Z,46.90
2019-02-19T13:04:36.900Z,47.10
2019-02-19T13:07:23.693Z,47.20
2019-02-19T13:10:10.610Z,47.40
2019-02-19T13:12:57.813Z,47.60
2019-02-19T13:15:44.705Z,48.00
2019-02-19T13:18:51.040Z,48.00
2019-02-19T13:21:37.846Z,47.80
2019-02-19T13:24:24.710Z,47.80
2019-02-19T13:27:11.607Z,47.80
2019-02-19T13:29:58.675Z,47.60
2019-02-19T13:32:45.548Z,47.50
2019-02-19T13:35:32.432Z,47.50
2019-02-19T13:38:19.316Z,47.20
2019-02-19T13:40:59.612Z,46.80
2019-02-19T13:43:39.678Z,46.50
2019-02-19T13:46:20.048Z,46.20
2019-02-19T13:49:00.226Z,46.50
2019-02-19T13:51:40.347Z,46.70
2019-02-19T13:54:34.214Z,47.30
2019-02-19T13:57:13.900Z,48.10
2019-02-19T13:59:53.992Z,48.60
2019-02-19T14:02:33.982Z,49.00
2019-02-19T14:05:14.103Z,49.30
2019-02-19T14:07:54.229Z,49.80
2019-02-19T14:10:34.208Z,50.20
2019-02-19T14:13:14.198Z,50.20
2019-02-19T14:16:13.884Z,49.60
2019-02-19T14:19:02.601Z,49.00
2019-02-19T14:21:59.583Z,48.10
2019-02-19T14:24:49.512Z,47.80
2019-02-19T14:27:30.338Z,47.60
2019-02-19T14:30:23.449Z,47.10
2019-02-19T14:33:06.558Z,47.10
2019-02-19T14:35:53.749Z,47.70
2019-02-19T14:38:38.842Z,48.30
2019-02-19T14:41:43.969Z,48.90
2019-02-19T14:44:29.057Z,49.40
2019-02-19T14:47:09.049Z,49.80
2019-02-19T14:49:54.349Z,50.10
2019-02-19T14:52:41.214Z,50.00
2019-02-19T14:55:19.653Z,49.80
2019-02-19T14:58:01.579Z,49.50
2019-02-19T15:00:46.150Z,49.30
2019-02-19T15:03:35.513Z,48.90
2019-02-19T15:06:25.185Z,48.40
2019-02-19T15:09:13.389Z,48.20
2019-02-19T15:11:58.804Z,48.20
2019-02-19T15:14:40.734Z,48.10
2019-02-19T15:17:27.596Z,48.10
2019-02-19T15:20:17.430Z,48.50
2019-02-19T15:23:09.827Z,49.00
2019-02-19T15:26:00.494Z,49.60
2019-02-19T15:28:47.513Z,50.00
2019-02-19T15:31:45.982Z,50.20
2019-02-19T15:34:26.133Z,50.30
2019-02-19T15:37:22.002Z,50.80
2019-02-19T15:40:07.300Z,51.00
2019-02-19T15:42:54.170Z,51.20
2019-02-19T15:45:30.572Z,51.50
2019-02-19T15:48:11.823Z,51.40
2019-02-19T15:50:57.128Z,51.50
2019-02-19T15:53:44.025Z,51.60
2019-02-19T15:56:33.884Z,52.50
2019-02-19T15:59:18.952Z,52.60
2019-02-19T16:02:05.981Z,53.00
2019-02-19T16:04:58.728Z,53.50
2019-02-19T16:07:35.103Z,53.70
2019-02-19T16:10:13.189Z,54.00
2019-02-19T16:12:52.746Z,54.40
2019-02-19T16:15:36.652Z,54.80
2019-02-19T16:18:43.084Z,55.20
2019-02-19T16:21:49.437Z,55.50
2019-02-19T16:24:55.797Z,55.80
2019-02-19T16:28:02.161Z,56.30
2019-02-19T16:31:08.521Z,56.70
2019-02-19T16:34:12.594Z,57.00
2019-02-19T16:37:18.969Z,57.60
2019-02-19T16:40:25.323Z,57.90
2019-02-19T16:43:16.221Z,58.10
2019-02-19T16:46:03.127Z,58.40
2019-02-19T16:49:04.949Z,58.80
2019-02-19T16:52:00.583Z,58.80
2019-02-19T16:54:35.558Z,58.90
2019-02-19T16:57:31.365Z,59.10
2019-02-19T17:00:15.821Z,59.10
2019-02-19T17:02:48.674Z,59.20
2019-02-19T17:05:47.664Z,59.30
2019-02-19T17:08:43.108Z,59.50
2019-02-19T17:14:41.938Z,59.70
2019-02-19T17:17:48.293Z,59.80
2019-02-19T17:20:54.675Z,59.90
2019-02-19T17:24:01.261Z,59.90
2019-02-19T17:27:07.718Z,60.10
2019-02-19T17:30:02.799Z,60.80
2019-02-19T17:39:20.724Z,62.80
2019-02-19T17:42:27.077Z,63.60
2019-02-19T17:45:26.420Z,64.00
2019-02-19T17:48:25.686Z,64.20
2019-02-19T17:51:18.542Z,64.70
2019-02-19T17:54:18.509Z,65.00
2019-02-19T17:57:18.071Z,65.50
2019-02-19T18:00:17.067Z,66.20
2019-02-19T18:03:16.169Z,66.60
2019-02-19T18:06:15.450Z,67.70
2019-02-19T18:09:05.218Z,67.00
2019-02-19T18:11:47.004Z,67.20
2019-02-19T18:14:40.878Z,67.70
2019-02-19T18:17:24.587Z,68.00
2019-02-19T18:20:11.492Z,68.10
2019-02-19T18:22:38.947Z,68.30
2019-02-19T18:25:25.980Z,68.60
2019-02-19T18:28:34.614Z,68.80
2019-02-19T18:31:21.497Z,69.10
2019-02-19T18:34:08.478Z,69.40
2019-02-19T18:36:55.357Z,69.50
2019-02-19T18:39:42.254Z,69.50
2019-02-19T18:42:29.495Z,69.80
2019-02-19T18:45:09.792Z,69.90
2019-02-19T18:47:37.196Z,69.90
2019-02-19T18:50:24.050Z,70.10
2019-02-19T18:53:10.937Z,70.40
2019-02-19T18:55:57.717Z,70.50
2019-02-19T18:58:44.493Z,70.80
2019-02-19T19:01:31.380Z,71.10
2019-02-19T19:04:18.304Z,71.20
2019-02-19T19:07:05.178Z,71.50
2019-02-19T19:09:52.071Z,71.50
2019-02-19T19:12:39.035Z,71.60
2019-02-19T19:15:25.937Z,72.00
2019-02-19T19:18:13.577Z,72.30
2019-02-19T19:21:07.682Z,72.60
2019-02-19T19:24:09.225Z,72.90
2019-02-19T19:26:56.190Z,73.20
2019-02-19T19:29:43.048Z,73.40
2019-02-19T19:32:29.927Z,73.70
2019-02-19T19:35:16.772Z,74.00
2019-02-19T19:38:03.541Z,74.40
2019-02-19T19:40:50.406Z,74.50
2019-02-19T19:43:37.377Z,74.60
2019-02-19T19:46:17.563Z,74.80
2019-02-19T19:48:57.614Z,75.10
2019-02-19T19:51:37.737Z,75.30
2019-02-19T19:54:18.116Z,75.40
2019-02-19T19:56:58.301Z,75.40
2019-02-19T19:59:38.346Z,75.50
2019-02-19T20:02:20.008Z,75.70
2019-02-19T20:04:59.750Z,76.00
2019-02-19T20:07:39.706Z,76.30
2019-02-19T20:10:21.092Z,76.60
2019-02-19T20:13:01.114Z,76.90
2019-02-19T20:15:41.211Z,76.90
2019-02-19T20:18:21.327Z,77.30
2019-02-19T20:21:01.471Z,77.50
2019-02-19T20:23:41.425Z,77.60
2019-02-19T20:26:21.618Z,77.90
2019-02-19T20:29:02.808Z,78.10
2019-02-19T20:31:30.462Z,78.30
2019-02-19T20:34:17.310Z,78.90
2019-02-19T20:37:04.171Z,79.20
2019-02-19T20:43:13.941Z,79.80
2019-02-19T20:45:54.206Z,80.10
2019-02-19T20:48:34.394Z,80.20
2019-02-19T20:51:14.423Z,80.30
2019-02-19T20:53:54.513Z,80.40
2019-02-19T20:56:34.779Z,80.70
2019-02-19T20:59:17.040Z,81.10
2019-02-19T21:01:56.913Z,81.50
2019-02-19T21:04:38.163Z,81.90
2019-02-19T21:07:17.855Z,82.10
2019-02-19T21:09:57.585Z,82.30
2019-02-19T21:12:37.728Z,82.30
2019-02-19T21:15:17.802Z,82.40
2019-02-19T21:17:57.872Z,82.70
2019-02-19T21:20:38.143Z,82.70
2019-02-19T21:23:18.003Z,82.90
2019-02-19T21:25:58.105Z,83.10
2019-02-19T21:28:38.114Z,83.50
2019-02-19T21:31:18.228Z,83.50
2019-02-19T21:33:58.100Z,83.60
2019-02-19T21:36:37.914Z,83.90
2019-02-19T21:42:12.057Z,84.40
2019-02-19T21:44:58.928Z,84.60
2019-02-19T21:47:39.401Z,84.70
2019-02-19T21:50:19.370Z,84.60
2019-02-19T21:52:59.385Z,84.80
2019-02-19T21:55:39.336Z,85.00
2019-02-19T21:58:19.566Z,85.10
2019-02-19T22:00:59.546Z,85.20
2019-02-19T22:03:39.663Z,85.40
2019-02-19T22:06:20.026Z,85.60
2019-02-19T22:08:47.327Z,85.60
2019-02-19T22:11:14.772Z,85.80
2019-02-19T22:14:01.649Z,85.90
2019-02-19T22:16:48.503Z,86.00
2019-02-19T22:19:35.378Z,86.00
2019-02-19T22:22:24.592Z,85.90
2019-02-19T22:24:51.986Z,85.90
2019-02-19T22:27:19.232Z,86.00
2019-02-19T22:29:46.579Z,86.10
2019-02-19T22:32:33.424Z,86.20
2019-02-19T22:35:20.295Z,86.10
2019-02-19T22:38:07.134Z,86.00
2019-02-19T22:40:55.385Z,86.00
2019-02-19T22:44:02.633Z,85.80
2019-02-19T22:46:49.610Z,85.70
2019-02-19T22:49:29.270Z,85.60
2019-02-19T22:52:12.505Z,85.50
2019-02-19T22:55:10.683Z,85.50
2019-02-19T22:57:50.317Z,85.40
2019-02-19T23:00:49.817Z,85.40
2019-02-19T23:03:29.798Z,85.50
2019-02-19T23:06:09.870Z,85.60
2019-02-19T23:08:50.046Z,85.60
2019-02-19T23:11:30.094Z,85.40
2019-02-19T23:14:10.222Z,85.30
2019-02-19T23:16:50.216Z,85.40
2019-02-19T23:19:30.529Z,85.30
2019-02-19T23:22:10.755Z,85.20
2019-02-19T23:24:50.756Z,85.00
2019-02-19T23:27:31.123Z,84.90
2019-02-19T23:30:10.967Z,84.80
2019-02-19T23:32:51.226Z,84.60
2019-02-19T23:39:05.805Z,84.60
2019-02-19T23:41:45.835Z,84.40
2019-02-19T23:44:26.147Z,84.40
2019-02-19T23:47:06.421Z,84.50
2019-02-19T23:49:46.637Z,84.40
2019-02-19T23:52:30.542Z,84.40
2019-02-19T23:55:09.024Z,84.50
2019-02-19T23:57:36.390Z,84.50
